< < Back
Terminal Aerodrome Forecast


Current Version              Previous Versions:   1  2  3  4  5  6  7  8  9  

Terminal Aerodrome Forecast

161
FTUS42 KGSP 032100 AAA
TAFAVL
TAF AMD
KAVL 032100Z 0321/0418 34012G20KT P6SM SCT040
     FM032300 33010KT P6SM SCT040
     FM040700 33007KT P6SM BKN015
     FM041200 34007KT P6SM SCT030
     FM041600 35011KT P6SM SCT050=

Latest METAR

720
SAUS70 KWBC 040000 RRC
MTRAVL
METAR KAVL 032354Z 35009KT 10SM CLR 18/10 A2983 RMK AO2 SLP081 T01780100
10228 20178 53007


USA.gov is the U.S. government's official web portal to all federal, state and local government web resources and services.